No particular awareness of the weather is required.    There are no Weather-warnings


Meteo18 Weather Cam more information Meteo18 Weather Cam


Thunder radar more information blitzortung!


Rain radar more information rain snow radar


Visit our other weather sites:

Template documentation
and downloads

And another site



Weather Underground History page Text

Daily Summary for February 28, 2017 Units:  English    Metric   Both
« Previous Day
Next Day »
Daily Weekly Monthly Yearly Custom
  High: Low: Average:
Temperature: 45.1 °F 39.6 °F 41.7 °F
Dew Point: 39.7 °F 35.2 °F 37.6 °F
Humidity: 91 % 79 % 85 %
Wind Speed: 27 mph 2 mph 10.4 mph
Wind Gust: 41 mph - -
Wind:- - SW
Pressure: 29.7 in 29.4 in -
Precipitation: 0.09 in    
Historical Graphs
 
 
Tabular Data for February 28, 2017
Time Temperature Dew Point Pressure Wind Wind Speed Wind Gust Humidity Rainfall Rate (Hourly)
00:02 42.4 °F 37.6 °F 29.6 in SSW 12 mph 23 mph 83 % 0 in
00:12 42.6 °F 37.2 °F 29.6 in SW 12 mph 23 mph 81 % 0 in
00:17 42.4 °F 37 °F 29.6 in SW 19 mph 22 mph 81 % 0 in
00:22 42.4 °F 37 °F 29.6 in South 10 mph 22 mph 81 % 0 in
00:27 42.3 °F 36.9 °F 29.6 in South 13 mph 24 mph 81 % 0 in
00:32 42.1 °F 36.7 °F 29.6 in West 23 mph 24 mph 81 % 0 in
00:37 42.1 °F 37 °F 29.6 in SW 12 mph 26 mph 82 % 0 in
00:42 41.7 °F 36.7 °F 29.6 in SW 13 mph 26 mph 82 % 0 in
00:47 41.7 °F 36.7 °F 29.6 in SW 6 mph 24 mph 82 % 0 in
00:52 41.5 °F 36.7 °F 29.6 in WSW 13 mph 24 mph 83 % 0 in
00:57 41.5 °F 36.7 °F 29.6 in SW 17 mph 23 mph 83 % 0 in
01:02 41.5 °F 36.5 °F 29.6 in SW 9 mph 22 mph 82 % 0 in
01:12 41.5 °F 36.7 °F 29.6 in SW 10 mph 20 mph 83 % 0 in
01:17 41.5 °F 36.7 °F 29.6 in SW 5 mph 19 mph 83 % 0 in
01:22 41.4 °F 36.5 °F 29.6 in WSW 7 mph 24 mph 83 % 0 in
01:32 41.4 °F 36.9 °F 29.6 in SW 8 mph 24 mph 84 % 0 in
01:37 41.2 °F 37 °F 29.6 in SW 11 mph 17 mph 85 % 0 in
01:42 41.2 °F 37.4 °F 29.6 in SW 7 mph 17 mph 86 % 0 in
01:47 41.2 °F 37.4 °F 29.6 in SW 12 mph 18 mph 86 % 0 in
01:52 41 °F 37.4 °F 29.6 in WSW 9 mph 18 mph 87 % 0 in
01:57 41 °F 37.4 °F 29.6 in SW 15 mph 16 mph 87 % 0 in
02:02 41.2 °F 37.9 °F 29.6 in SSW 8 mph 16 mph 88 % 0 in
02:07 41.2 °F 37.9 °F 29.6 in SW 8 mph 17 mph 88 % 0 in
02:12 41 °F 37.8 °F 29.6 in West 11 mph 17 mph 88 % 0 in
02:17 41.2 °F 37.9 °F 29.6 in SSW 6 mph 16 mph 88 % 0 in
02:22 41.2 °F 37.9 °F 29.6 in SW 14 mph 15 mph 88 % 0 in
02:27 41.2 °F 37.9 °F 29.6 in SW 15 mph 15 mph 88 % 0 in
02:32 41 °F 37.8 °F 29.6 in SW 5 mph 15 mph 88 % 0 in
02:37 40.8 °F 37.6 °F 29.6 in WSW 9 mph 15 mph 88 % 0 in
02:42 40.8 °F 37.6 °F 29.6 in WSW 8 mph 15 mph 88 % 0 in
02:47 40.8 °F 37.6 °F 29.6 in SW 9 mph 15 mph 88 % 0 in
02:52 40.6 °F 37.4 °F 29.6 in South 5 mph 15 mph 88 % 0 in
02:57 40.1 °F 37 °F 29.6 in SW 4 mph 12 mph 89 % 0 in
03:02 39.9 °F 37.2 °F 29.6 in SW 5 mph 12 mph 90 % 0 in
03:12 40.1 °F 37.8 °F 29.6 in SSW 5 mph 11 mph 91 % 0 in
03:17 40.3 °F 37.9 °F 29.6 in SSW 11 mph 11 mph 91 % 0 in
03:22 40.8 °F 37.8 °F 29.6 in SW 10 mph 12 mph 89 % 0 in
03:27 41.2 °F 37.9 °F 29.6 in WSW 13 mph 16 mph 88 % 0 in
03:37 41.5 °F 37.9 °F 29.6 in SW 8 mph 19 mph 87 % 0 in
03:42 41.5 °F 37.6 °F 29.6 in West 9 mph 19 mph 86 % 0 in
03:52 41.5 °F 37.6 °F 29.6 in SW 9 mph 20 mph 86 % 0 in
03:57 41.4 °F 37.6 °F 29.6 in SW 11 mph 20 mph 86 % 0 in
04:02 41.2 °F 37.4 °F 29.6 in SW 10 mph 20 mph 86 % 0 in
04:12 40.6 °F 37 °F 29.6 in SW 9 mph 17 mph 87 % 0 in
04:17 40.8 °F 37.2 °F 29.6 in SW 8 mph 17 mph 87 % 0 in
04:22 40.8 °F 37 °F 29.6 in WSW 9 mph 15 mph 86 % 0 in
04:32 41 °F 37.2 °F 29.6 in SW 10 mph 15 mph 86 % 0 in
04:42 40.8 °F 37.2 °F 29.6 in SW 8 mph 14 mph 87 % 0 in
04:47 40.8 °F 37.6 °F 29.6 in SSW 8 mph 15 mph 88 % 0 in
04:52 40.8 °F 37.6 °F 29.6 in SW 11 mph 15 mph 88 % 0 in
04:57 40.8 °F 37.6 °F 29.5 in SW 6 mph 15 mph 88 % 0 in
05:02 41.2 °F 37.9 °F 29.5 in SW 11 mph 15 mph 88 % 0 in
05:07 41 °F 37.8 °F 29.5 in SSW 5 mph 15 mph 88 % 0 in
05:12 40.6 °F 37.6 °F 29.5 in SSW 6 mph 15 mph 89 % 0 in
05:17 40.5 °F 37.4 °F 29.5 in SW 10 mph 15 mph 89 % 0 in
05:22 40.1 °F 37.4 °F 29.5 in SW 9 mph 12 mph 90 % 0 in
05:27 39.9 °F 37.2 °F 29.5 in SW 11 mph 12 mph 90 % 0 in
05:32 39.9 °F 37.2 °F 29.5 in SW 7 mph 13 mph 90 % 0 in
05:42 40.1 °F 37.4 °F 29.5 in SSW 9 mph 15 mph 90 % 0 in
05:47 40.3 °F 37.6 °F 29.5 in SSW 10 mph 15 mph 90 % 0 in
05:52 40.5 °F 37.8 °F 29.5 in SW 10 mph 16 mph 90 % 0 in
06:02 40.1 °F 37.4 °F 29.5 in SW 11 mph 16 mph 90 % 0 in
06:07 39.9 °F 37.2 °F 29.5 in SW 8 mph 16 mph 90 % 0 in
06:12 39.9 °F 37.6 °F 29.5 in SW 14 mph 16 mph 91 % 0 in
06:17 39.9 °F 37.6 °F 29.5 in SW 10 mph 16 mph 91 % 0 in
06:22 39.9 °F 37.6 °F 29.5 in SSW 5 mph 15 mph 91 % 0 in
06:32 39.7 °F 37.4 °F 29.5 in SSW 4 mph 15 mph 91 % 0 in
06:37 39.7 °F 37.4 °F 29.5 in SSW 6 mph 13 mph 91 % 0 in
06:42 39.7 °F 37.4 °F 29.5 in SW 10 mph 13 mph 91 % 0 in
06:47 39.9 °F 37.6 °F 29.5 in SW 7 mph 13 mph 91 % 0 in
06:52 39.7 °F 37.4 °F 29.5 in SSW 8 mph 12 mph 91 % 0 in
07:02 39.9 °F 37.2 °F 29.5 in SSW 9 mph 12 mph 90 % 0 in
07:07 39.7 °F 37 °F 29.5 in SSW 6 mph 12 mph 90 % 0 in
07:12 39.7 °F 37 °F 29.5 in SSE 5 mph 13 mph 90 % 0 in
07:17 39.6 °F 36.9 °F 29.5 in South 6 mph 13 mph 90 % 0 in
07:22 39.6 °F 36.9 °F 29.5 in SSW 7 mph 11 mph 90 % 0 in
07:32 39.6 °F 36.9 °F 29.5 in SSW 7 mph 14 mph 90 % 0 in
07:42 39.7 °F 36.7 °F 29.5 in SSW 9 mph 14 mph 89 % 0 in
07:47 39.9 °F 36.9 °F 29.5 in SSW 12 mph 14 mph 89 % 0 in
07:52 40.3 °F 37.2 °F 29.5 in SSW 8 mph 15 mph 89 % 0 in
07:57 40.5 °F 37.2 °F 29.5 in SW 6 mph 15 mph 88 % 0 in
08:02 40.6 °F 37.4 °F 29.5 in SSW 8 mph 15 mph 88 % 0 in
08:07 40.8 °F 37.2 °F 29.5 in South 8 mph 15 mph 87 % 0 in
08:12 40.8 °F 37.2 °F 29.5 in South 7 mph 15 mph 87 % 0 in
08:22 41.2 °F 37.4 °F 29.5 in SSW 9 mph 14 mph 86 % 0 in
08:32 41.4 °F 37.6 °F 29.4 in SSW 8 mph 20 mph 86 % 0 in
08:37 41.4 °F 37.6 °F 29.4 in SSE 8 mph 20 mph 86 % 0 in
08:42 41.4 °F 37.8 °F 29.4 in SSE 10 mph 17 mph 87 % 0 in
08:47 41.4 °F 37.8 °F 29.4 in SSW 2 mph 17 mph 87 % 0 in
08:52 41.2 °F 38.1 °F 29.4 in SSE 2 mph 15 mph 89 % 0.01 in
09:02 40.6 °F 37.9 °F 29.4 in SSE 3 mph 11 mph 90 % 0.02 in
09:12 40.6 °F 38.3 °F 29.4 in SE 5 mph 11 mph 91 % 0.02 in
09:22 41.2 °F 38.5 °F 29.4 in SSE 5 mph 14 mph 90 % 0.02 in
09:27 41.4 °F 38.7 °F 29.4 in SSE 6 mph 14 mph 90 % 0.02 in
09:32 41.4 °F 38.7 °F 29.4 in SSE 5 mph 18 mph 90 % 0.02 in
09:37 41.5 °F 38.8 °F 29.4 in SSW 10 mph 18 mph 90 % 0.02 in
09:42 41.5 °F 38.5 °F 29.4 in SSW 15 mph 17 mph 89 % 0.02 in
09:47 41.7 °F 38.7 °F 29.4 in South 13 mph 17 mph 89 % 0.02 in
09:52 41.7 °F 38.7 °F 29.4 in SW 17 mph 17 mph 89 % 0.02 in
09:57 41.7 °F 38.7 °F 29.4 in South 9 mph 17 mph 89 % 0.02 in
10:02 41.9 °F 38.8 °F 29.4 in SSW 15 mph 23 mph 89 % 0.02 in
10:12 42.1 °F 39.4 °F 29.4 in SW 15 mph 23 mph 90 % 0.02 in
10:17 42.1 °F 39.6 °F 29.4 in SSW 22 mph 23 mph 91 % 0.02 in
10:22 42.1 °F 39.6 °F 29.4 in SW 15 mph 29 mph 91 % 0.02 in
10:32 42.1 °F 39 °F 29.4 in SW 10 mph 30 mph 89 % 0.03 in
10:42 41.9 °F 38.8 °F 29.4 in WSW 5 mph 30 mph 89 % 0.03 in
10:52 41.5 °F 38.5 °F 29.4 in SSW 14 mph 28 mph 89 % 0.03 in
10:57 41.7 °F 38.7 °F 29.4 in SW 14 mph 28 mph 89 % 0.03 in
11:02 41.9 °F 38.8 °F 29.4 in WSW 11 mph 23 mph 89 % 0.03 in
11:12 42.1 °F 39 °F 29.4 in SW 15 mph 26 mph 89 % 0.02 in
11:17 42.3 °F 39.2 °F 29.4 in SW 19 mph 26 mph 89 % 0.02 in
11:22 42.6 °F 39.4 °F 29.4 in SW 14 mph 23 mph 88 % 0.02 in
11:32 42.8 °F 38.8 °F 29.4 in SW 13 mph 29 mph 86 % 0.01 in
11:37 42.8 °F 38.8 °F 29.4 in SW 5 mph 29 mph 86 % 0.01 in
11:42 42.8 °F 38.7 °F 29.4 in WSW 14 mph 27 mph 85 % 0.01 in
11:47 42.6 °F 38.5 °F 29.4 in SW 17 mph 27 mph 85 % 0.01 in
11:52 42.6 °F 38.7 °F 29.4 in SW 14 mph 28 mph 86 % 0 in
11:57 42.8 °F 38.8 °F 29.4 in WSW 5 mph 28 mph 86 % 0 in
12:02 42.6 °F 38.5 °F 29.4 in West 7 mph 28 mph 85 % 0 in
12:12 42.1 °F 38.1 °F 29.4 in WSW 19 mph 31 mph 86 % 0 in
12:17 41.7 °F 37.8 °F 29.4 in WSW 19 mph 31 mph 86 % 0 in
12:22 41.7 °F 38.1 °F 29.4 in WSW 13 mph 27 mph 87 % 0 in
12:32 41.7 °F 38.1 °F 29.4 in SW 12 mph 27 mph 87 % 0 in
12:42 41.7 °F 37.8 °F 29.4 in SW 19 mph 25 mph 86 % 0.01 in
12:47 41.4 °F 37.8 °F 29.4 in WSW 22 mph 25 mph 87 % 0.01 in
12:52 41.4 °F 38.1 °F 29.4 in WSW 16 mph 28 mph 88 % 0.01 in
13:02 41.5 °F 38.5 °F 29.4 in SW 15 mph 28 mph 89 % 0.01 in
13:12 42.4 °F 38.8 °F 29.4 in SW 11 mph 22 mph 87 % 0.01 in
13:22 43.3 °F 39.7 °F 29.4 in SSW 8 mph 24 mph 87 % 0.01 in
13:32 43.5 °F 39.4 °F 29.4 in SW 17 mph 24 mph 85 % 0 in
13:42 43.7 °F 38.8 °F 29.4 in WSW 14 mph 28 mph 83 % 0 in
13:52 43.9 °F 39 °F 29.4 in SW 19 mph 27 mph 83 % 0 in
14:02 44.1 °F 39.2 °F 29.4 in SW 16 mph 30 mph 83 % 0 in
14:12 44.6 °F 39.2 °F 29.4 in SW 17 mph 30 mph 81 % 0 in
14:17 45 °F 39.2 °F 29.4 in SW 12 mph 24 mph 80 % 0 in
14:22 45 °F 39.2 °F 29.4 in SW 14 mph 34 mph 80 % 0 in
14:32 44.8 °F 39.4 °F 29.4 in WSW 10 mph 34 mph 81 % 0 in
14:37 44.6 °F 39.4 °F 29.4 in WSW 27 mph 32 mph 82 % 0 in
14:42 44.6 °F 39.2 °F 29.4 in WSW 20 mph 32 mph 81 % 0 in
14:47 45.1 °F 39.7 °F 29.4 in SW 10 mph 33 mph 81 % 0 in
14:52 45.1 °F 39 °F 29.4 in WSW 11 mph 33 mph 79 % 0 in
15:02 43.9 °F 39.4 °F 29.4 in WSW 23 mph 41 mph 84 % 0.01 in
15:12 42.8 °F 38.3 °F 29.5 in West 17 mph 41 mph 84 % 0.01 in
15:17 42.4 °F 37.9 °F 29.5 in WNW 25 mph 41 mph 84 % 0.01 in
15:22 42.3 °F 37.8 °F 29.5 in WNW 22 mph 32 mph 84 % 0.01 in
15:32 42.1 °F 37.9 °F 29.5 in West 16 mph 32 mph 85 % 0.01 in
15:42 42.6 °F 37.8 °F 29.5 in WNW 19 mph 30 mph 83 % 0.01 in
15:52 43 °F 37.9 °F 29.5 in WNW 23 mph 30 mph 82 % 0.01 in
15:57 43.3 °F 38.8 °F 29.5 in WNW 19 mph 32 mph 84 % 0 in
16:02 43.5 °F 38.7 °F 29.5 in WNW 10 mph 32 mph 83 % 0 in
16:12 43.7 °F 38.3 °F 29.5 in West 7 mph 32 mph 81 % 0 in
16:17 43.9 °F 38.1 °F 29.5 in West 7 mph 31 mph 80 % 0 in
16:22 43.5 °F 37.8 °F 29.5 in WNW 15 mph 31 mph 80 % 0 in
16:32 43.7 °F 37.6 °F 29.5 in WNW 9 mph 24 mph 79 % 0 in
16:42 43.3 °F 37.6 °F 29.5 in WSW 10 mph 30 mph 80 % 0 in
16:47 43.3 °F 37.6 °F 29.5 in West 18 mph 30 mph 80 % 0 in
16:52 43.3 °F 37.6 °F 29.6 in West 19 mph 30 mph 80 % 0 in
16:57 43.2 °F 37.8 °F 29.6 in West 15 mph 27 mph 81 % 0 in
17:02 43 °F 38.1 °F 29.6 in West 18 mph 27 mph 83 % 0 in
17:12 42.8 °F 37.8 °F 29.6 in NW 20 mph 23 mph 82 % 0 in
17:17 43.2 °F 38.1 °F 29.6 in West 17 mph 31 mph 82 % 0 in
17:22 43.3 °F 37.9 °F 29.6 in WNW 13 mph 31 mph 81 % 0 in
17:32 43.3 °F 38.5 °F 29.6 in West 9 mph 22 mph 83 % 0 in
17:42 43 °F 38.5 °F 29.6 in West 9 mph 17 mph 84 % 0 in
17:47 42.8 °F 38.3 °F 29.6 in West 7 mph 15 mph 84 % 0 in
17:52 43 °F 38.5 °F 29.6 in WNW 9 mph 15 mph 84 % 0 in
18:02 43.3 °F 39.2 °F 29.6 in WNW 3 mph 17 mph 85 % 0 in
18:12 43.3 °F 38.5 °F 29.6 in WSW 4 mph 17 mph 83 % 0 in
18:17 43.3 °F 38.5 °F 29.6 in West 8 mph 11 mph 83 % 0 in
18:22 43 °F 38.5 °F 29.6 in WSW 4 mph 11 mph 84 % 0 in
18:32 42.6 °F 38.1 °F 29.6 in WSW 7 mph 11 mph 84 % 0 in
18:42 42.3 °F 38.1 °F 29.6 in WSW 3 mph 13 mph 85 % 0 in
18:47 42.3 °F 38.1 °F 29.7 in WSW 5 mph 10 mph 85 % 0 in
18:57 42.1 °F 37.9 °F 29.7 in SW 2 mph 9 mph 85 % 0 in
19:02 42.1 °F 37.2 °F 29.7 in SW 3 mph 9 mph 83 % 0 in
19:12 42.3 °F 36.9 °F 29.7 in SSW 4 mph 12 mph 81 % 0 in
19:17 42.3 °F 36.9 °F 29.7 in WSW 2 mph 12 mph 81 % 0 in
19:22 42.1 °F 36.7 °F 29.7 in West 12 mph 12 mph 81 % 0 in
19:27 42.3 °F 36.5 °F 29.7 in SW 5 mph 11 mph 80 % 0 in
19:32 42.1 °F 36.3 °F 29.7 in SW 6 mph 12 mph 80 % 0 in
19:37 41.7 °F 36.3 °F 29.7 in SW 6 mph 12 mph 81 % 0 in
19:42 41.7 °F 36 °F 29.7 in SW 7 mph 12 mph 80 % 0 in
19:52 41.4 °F 36 °F 29.7 in SW 5 mph 11 mph 81 % 0 in
19:57 41.2 °F 35.8 °F 29.7 in SW 6 mph 11 mph 81 % 0 in
20:02 41.2 °F 35.8 °F 29.7 in SW 7 mph 11 mph 81 % 0 in
20:12 40.6 °F 36 °F 29.7 in SW 6 mph 11 mph 83 % 0 in
20:17 40.8 °F 35.8 °F 29.7 in SSW 5 mph 11 mph 82 % 0 in
20:22 41.2 °F 35.8 °F 29.7 in SSW 3 mph 11 mph 81 % 0 in
20:32 41 °F 35.6 °F 29.7 in WSW 3 mph 11 mph 81 % 0 in
20:42 39.7 °F 35.2 °F 29.7 in SW 5 mph 11 mph 84 % 0 in
20:47 39.6 °F 35.4 °F 29.7 in SW 2 mph 8 mph 85 % 0 in
20:52 40.1 °F 35.6 °F 29.7 in SSW 4 mph 8 mph 84 % 0 in
20:57 40.5 °F 35.8 °F 29.7 in WSW 7 mph 8 mph 83 % 0 in
21:02 40.6 °F 36 °F 29.7 in SW 5 mph 12 mph 83 % 0 in
21:12 41 °F 35.6 °F 29.7 in South 7 mph 12 mph 81 % 0 in
21:17 41.2 °F 35.4 °F 29.7 in SW 12 mph 15 mph 80 % 0 in
21:22 41.2 °F 35.4 °F 29.7 in SW 7 mph 15 mph 80 % 0 in
21:32 41.4 °F 36 °F 29.7 in SW 8 mph 15 mph 81 % 0 in
21:42 41.5 °F 36.1 °F 29.7 in WSW 5 mph 14 mph 81 % 0 in
21:52 41.7 °F 36.3 °F 29.7 in SW 8 mph 19 mph 81 % 0 in
21:57 41.7 °F 36.3 °F 29.7 in WSW 12 mph 19 mph 81 % 0 in
22:02 42.1 °F 36.3 °F 29.7 in SW 15 mph 17 mph 80 % 0 in
22:12 42.3 °F 36.1 °F 29.7 in WSW 13 mph 20 mph 79 % 0 in
22:17 42.3 °F 36.1 °F 29.7 in SW 14 mph 20 mph 79 % 0 in
22:22 42.3 °F 36.1 °F 29.7 in SW 16 mph 19 mph 79 % 0 in
22:32 42.4 °F 36.3 °F 29.7 in West 18 mph 19 mph 79 % 0 in
22:42 42.4 °F 36.3 °F 29.7 in SW 11 mph 20 mph 79 % 0 in
22:47 42.4 °F 36.3 °F 29.7 in WSW 8 mph 23 mph 79 % 0 in
22:52 42.4 °F 36.7 °F 29.7 in SW 5 mph 23 mph 80 % 0 in
23:02 42.3 °F 36.9 °F 29.7 in West 8 mph 21 mph 81 % 0 in
23:12 42.3 °F 37.2 °F 29.7 in SW 10 mph 21 mph 82 % 0 in
23:17 42.3 °F 37.2 °F 29.7 in WSW 10 mph 19 mph 82 % 0 in
23:22 42.3 °F 37.4 °F 29.7 in WSW 7 mph 17 mph 83 % 0 in
23:32 42.1 °F 37.9 °F 29.7 in SW 6 mph 17 mph 85 % 0 in
23:42 42.1 °F 38.5 °F 29.7 in SSW 16 mph 21 mph 87 % 0 in
23:47 42.1 °F 38.5 °F 29.7 in SW 12 mph 21 mph 87 % 0.01 in
23:52 42.3 °F 38.3 °F 29.7 in SW 13 mph 21 mph 86 % 0.01 in
23:57 42.4 °F 38.5 °F 29.7 in SW 18 mph 23 mph 86 % 0.01 in
Meteo18
Compliments of Weather Underground - 4 mb

Script developed by  Jim McMurry - jmcmurry@mwt.net Adapted for the template by  Wim van der Kuil - Leuven-Template.eu

You find our weather info also at:

European Weather Network

Weather Underground

Equipment we use:

Weather-station
Davis Vue

Weather-program
Meteohub

Weather-server
Raspberry PI 2 B+

Provider
1 and 1

Davis Vue

Meteohub

Raspberry PI 2 B+

1 and 1